sensor_id;sensor_type;location;lat;lon;timestamp;temperature;humidity
57753;DHT22;43583;53.132;6.574;2023-05-07T00:01:41;12.50;99.90
57753;DHT22;43583;53.132;6.574;2023-05-07T00:04:07;12.40;99.90
57753;DHT22;43583;53.132;6.574;2023-05-07T00:06:33;12.40;99.90
57753;DHT22;43583;53.132;6.574;2023-05-07T00:08:59;12.40;99.90
57753;DHT22;43583;53.132;6.574;2023-05-07T00:11:25;12.40;99.90
57753;DHT22;43583;53.132;6.574;2023-05-07T00:13:51;12.30;99.90
57753;DHT22;43583;53.132;6.574;2023-05-07T00:16:17;12.30;99.90
57753;DHT22;43583;53.132;6.574;2023-05-07T00:18:42;12.20;99.90
57753;DHT22;43583;53.132;6.574;2023-05-07T00:21:08;12.20;99.90
57753;DHT22;43583;53.132;6.574;2023-05-07T00:23:34;12.20;99.90
57753;DHT22;43583;53.132;6.574;2023-05-07T00:26:00;12.20;99.90
57753;DHT22;43583;53.132;6.574;2023-05-07T00:28:25;12.10;99.90
57753;DHT22;43583;53.132;6.574;2023-05-07T00:30:51;12.10;99.90
57753;DHT22;43583;53.132;6.574;2023-05-07T00:33:16;12.10;99.90
57753;DHT22;43583;53.132;6.574;2023-05-07T00:35:42;12.10;99.90
57753;DHT22;43583;53.132;6.574;2023-05-07T00:38:08;12.10;99.90
57753;DHT22;43583;53.132;6.574;2023-05-07T00:40:33;12.10;99.90
57753;DHT22;43583;53.132;6.574;2023-05-07T00:42:59;12.00;99.90
57753;DHT22;43583;53.132;6.574;2023-05-07T00:45:28;12.00;99.90
57753;DHT22;43583;53.132;6.574;2023-05-07T00:47:55;12.00;99.90
57753;DHT22;43583;53.132;6.574;2023-05-07T00:50:22;12.00;99.90
57753;DHT22;43583;53.132;6.574;2023-05-07T00:52:48;12.00;99.90
57753;DHT22;43583;53.132;6.574;2023-05-07T00:55:14;11.90;99.90
57753;DHT22;43583;53.132;6.574;2023-05-07T00:57:41;11.90;99.90
57753;DHT22;43583;53.132;6.574;2023-05-07T01:00:08;11.90;99.90
57753;DHT22;43583;53.132;6.574;2023-05-07T01:02:38;11.90;99.90
57753;DHT22;43583;53.132;6.574;2023-05-07T01:05:06;11.80;99.90
57753;DHT22;43583;53.132;6.574;2023-05-07T01:07:33;11.80;99.90
57753;DHT22;43583;53.132;6.574;2023-05-07T01:10:00;11.80;99.90
57753;DHT22;43583;53.132;6.574;2023-05-07T01:12:26;11.80;99.90
57753;DHT22;43583;53.132;6.574;2023-05-07T01:14:53;11.80;99.90
57753;DHT22;43583;53.132;6.574;2023-05-07T01:17:19;11.70;99.90
57753;DHT22;43583;53.132;6.574;2023-05-07T01:19:45;11.70;99.90
57753;DHT22;43583;53.132;6.574;2023-05-07T01:22:11;11.70;99.90
57753;DHT22;43583;53.132;6.574;2023-05-07T01:24:38;11.60;99.90
57753;DHT22;43583;53.132;6.574;2023-05-07T01:27:04;11.60;99.90
57753;DHT22;43583;53.132;6.574;2023-05-07T01:29:29;11.60;99.90
57753;DHT22;43583;53.132;6.574;2023-05-07T01:31:58;11.60;99.90
57753;DHT22;43583;53.132;6.574;2023-05-07T01:34:25;11.60;99.90
57753;DHT22;43583;53.132;6.574;2023-05-07T01:36:53;11.50;99.90
57753;DHT22;43583;53.132;6.574;2023-05-07T01:39:22;11.50;99.90
57753;DHT22;43583;53.132;6.574;2023-05-07T01:41:49;11.50;99.90
57753;DHT22;43583;53.132;6.574;2023-05-07T01:44:15;11.50;99.90
57753;DHT22;43583;53.132;6.574;2023-05-07T01:46:42;11.40;99.90
57753;DHT22;43583;53.132;6.574;2023-05-07T01:49:08;11.40;99.90
57753;DHT22;43583;53.132;6.574;2023-05-07T01:51:34;11.40;99.90
57753;DHT22;43583;53.132;6.574;2023-05-07T01:54:00;11.40;99.90
57753;DHT22;43583;53.132;6.574;2023-05-07T01:56:25;11.40;99.90
57753;DHT22;43583;53.132;6.574;2023-05-07T01:58:51;11.30;99.90
57753;DHT22;43583;53.132;6.574;2023-05-07T02:01:17;11.30;99.90
57753;DHT22;43583;53.132;6.574;2023-05-07T02:03:44;11.30;99.90
57753;DHT22;43583;53.132;6.574;2023-05-07T02:06:09;11.30;99.90
57753;DHT22;43583;53.132;6.574;2023-05-07T02:08:35;11.30;99.90
57753;DHT22;43583;53.132;6.574;2023-05-07T02:11:01;11.20;99.90
57753;DHT22;43583;53.132;6.574;2023-05-07T02:13:29;11.20;99.90
57753;DHT22;43583;53.132;6.574;2023-05-07T02:15:55;11.20;99.90
57753;DHT22;43583;53.132;6.574;2023-05-07T02:18:21;11.20;99.90
57753;DHT22;43583;53.132;6.574;2023-05-07T02:20:46;11.20;99.90
57753;DHT22;43583;53.132;6.574;2023-05-07T02:23:12;11.20;99.90
57753;DHT22;43583;53.132;6.574;2023-05-07T02:25:38;11.20;99.90
57753;DHT22;43583;53.132;6.574;2023-05-07T02:28:03;11.20;99.90
57753;DHT22;43583;53.132;6.574;2023-05-07T02:30:29;11.10;99.90
57753;DHT22;43583;53.132;6.574;2023-05-07T02:32:55;11.20;99.90
57753;DHT22;43583;53.132;6.574;2023-05-07T02:35:20;11.20;99.90
57753;DHT22;43583;53.132;6.574;2023-05-07T02:37:46;11.20;99.90
57753;DHT22;43583;53.132;6.574;2023-05-07T02:40:12;11.10;99.90
57753;DHT22;43583;53.132;6.574;2023-05-07T02:42:37;11.10;99.90
57753;DHT22;43583;53.132;6.574;2023-05-07T02:45:03;11.10;99.90
57753;DHT22;43583;53.132;6.574;2023-05-07T02:47:29;11.20;99.90
57753;DHT22;43583;53.132;6.574;2023-05-07T02:49:55;11.10;99.90
57753;DHT22;43583;53.132;6.574;2023-05-07T02:52:21;11.20;99.90
57753;DHT22;43583;53.132;6.574;2023-05-07T02:54:47;11.10;99.90
57753;DHT22;43583;53.132;6.574;2023-05-07T02:57:13;11.10;99.90
57753;DHT22;43583;53.132;6.574;2023-05-07T02:59:38;11.10;99.90
57753;DHT22;43583;53.132;6.574;2023-05-07T03:02:04;11.10;99.90
57753;DHT22;43583;53.132;6.574;2023-05-07T03:04:30;11.10;99.90
57753;DHT22;43583;53.132;6.574;2023-05-07T03:06:56;11.10;99.90
57753;DHT22;43583;53.132;6.574;2023-05-07T03:09:22;11.10;99.90
57753;DHT22;43583;53.132;6.574;2023-05-07T03:11:47;11.10;99.90
57753;DHT22;43583;53.132;6.574;2023-05-07T03:14:13;11.10;99.90
57753;DHT22;43583;53.132;6.574;2023-05-07T03:16:39;11.10;99.90
57753;DHT22;43583;53.132;6.574;2023-05-07T03:19:04;11.10;99.90
57753;DHT22;43583;53.132;6.574;2023-05-07T03:21:30;11.00;99.90
57753;DHT22;43583;53.132;6.574;2023-05-07T03:23:59;11.00;99.90
57753;DHT22;43583;53.132;6.574;2023-05-07T03:26:24;11.00;99.90
57753;DHT22;43583;53.132;6.574;2023-05-07T03:28:51;11.00;99.90
57753;DHT22;43583;53.132;6.574;2023-05-07T03:31:16;11.00;99.90
57753;DHT22;43583;53.132;6.574;2023-05-07T03:33:53;11.00;99.90
57753;DHT22;43583;53.132;6.574;2023-05-07T03:36:19;11.00;99.90
57753;DHT22;43583;53.132;6.574;2023-05-07T03:38:44;11.00;99.90
57753;DHT22;43583;53.132;6.574;2023-05-07T03:41:11;11.00;99.90
57753;DHT22;43583;53.132;6.574;2023-05-07T03:43:36;10.90;99.90
57753;DHT22;43583;53.132;6.574;2023-05-07T03:46:02;10.90;99.90
57753;DHT22;43583;53.132;6.574;2023-05-07T03:48:27;10.90;99.90
57753;DHT22;43583;53.132;6.574;2023-05-07T03:50:53;10.90;99.90
57753;DHT22;43583;53.132;6.574;2023-05-07T03:53:19;10.90;99.90
57753;DHT22;43583;53.132;6.574;2023-05-07T03:55:44;10.90;99.90
57753;DHT22;43583;53.132;6.574;2023-05-07T03:58:10;10.90;99.90
57753;DHT22;43583;53.132;6.574;2023-05-07T04:00:35;10.90;99.90
57753;DHT22;43583;53.132;6.574;2023-05-07T04:03:04;10.90;99.90
57753;DHT22;43583;53.132;6.574;2023-05-07T04:05:30;10.80;99.90
57753;DHT22;43583;53.132;6.574;2023-05-07T04:07:58;10.80;99.90
57753;DHT22;43583;53.132;6.574;2023-05-07T04:10:24;10.80;99.90
57753;DHT22;43583;53.132;6.574;2023-05-07T04:12:50;10.90;99.90
57753;DHT22;43583;53.132;6.574;2023-05-07T04:15:15;10.80;99.90
57753;DHT22;43583;53.132;6.574;2023-05-07T04:17:41;10.80;99.90
57753;DHT22;43583;53.132;6.574;2023-05-07T04:20:10;10.90;99.90
57753;DHT22;43583;53.132;6.574;2023-05-07T04:22:36;10.80;99.90
57753;DHT22;43583;53.132;6.574;2023-05-07T04:25:02;10.80;99.90
57753;DHT22;43583;53.132;6.574;2023-05-07T04:27:29;10.80;99.90
57753;DHT22;43583;53.132;6.574;2023-05-07T04:29:55;10.80;99.90
57753;DHT22;43583;53.132;6.574;2023-05-07T04:32:22;10.80;99.90
57753;DHT22;43583;53.132;6.574;2023-05-07T04:34:47;10.80;99.90
57753;DHT22;43583;53.132;6.574;2023-05-07T04:37:13;10.80;99.90
57753;DHT22;43583;53.132;6.574;2023-05-07T04:39:39;10.80;99.90
57753;DHT22;43583;53.132;6.574;2023-05-07T04:42:05;10.80;99.90
57753;DHT22;43583;53.132;6.574;2023-05-07T04:44:34;10.80;99.90
57753;DHT22;43583;53.132;6.574;2023-05-07T04:47:00;10.80;99.90
57753;DHT22;43583;53.132;6.574;2023-05-07T04:49:26;10.80;99.90
57753;DHT22;43583;53.132;6.574;2023-05-07T04:51:53;10.80;99.90
57753;DHT22;43583;53.132;6.574;2023-05-07T04:54:18;10.80;99.90
57753;DHT22;43583;53.132;6.574;2023-05-07T04:56:44;10.80;99.90
57753;DHT22;43583;53.132;6.574;2023-05-07T04:59:10;10.80;99.90
57753;DHT22;43583;53.132;6.574;2023-05-07T05:01:36;10.80;99.90
57753;DHT22;43583;53.132;6.574;2023-05-07T05:04:01;10.80;99.90
57753;DHT22;43583;53.132;6.574;2023-05-07T05:06:27;10.80;99.90
57753;DHT22;43583;53.132;6.574;2023-05-07T05:08:52;10.80;99.90
57753;DHT22;43583;53.132;6.574;2023-05-07T05:11:18;10.80;99.90
57753;DHT22;43583;53.132;6.574;2023-05-07T05:13:44;10.80;99.90
57753;DHT22;43583;53.132;6.574;2023-05-07T05:16:09;10.80;99.90
57753;DHT22;43583;53.132;6.574;2023-05-07T05:18:35;10.80;99.90
57753;DHT22;43583;53.132;6.574;2023-05-07T05:21:01;10.80;99.90
57753;DHT22;43583;53.132;6.574;2023-05-07T05:23:27;10.90;99.90
57753;DHT22;43583;53.132;6.574;2023-05-07T05:25:56;10.90;99.90
57753;DHT22;43583;53.132;6.574;2023-05-07T05:28:23;10.90;99.90
57753;DHT22;43583;53.132;6.574;2023-05-07T05:30:49;10.90;99.90
57753;DHT22;43583;53.132;6.574;2023-05-07T05:33:15;11.00;99.90
57753;DHT22;43583;53.132;6.574;2023-05-07T05:35:42;11.00;99.90
57753;DHT22;43583;53.132;6.574;2023-05-07T05:38:08;11.00;99.90
57753;DHT22;43583;53.132;6.574;2023-05-07T05:40:33;11.00;99.90
57753;DHT22;43583;53.132;6.574;2023-05-07T05:42:59;11.00;99.90
57753;DHT22;43583;53.132;6.574;2023-05-07T05:45:25;11.00;99.90
57753;DHT22;43583;53.132;6.574;2023-05-07T05:47:50;11.00;99.90
57753;DHT22;43583;53.132;6.574;2023-05-07T05:50:16;11.00;99.90
57753;DHT22;43583;53.132;6.574;2023-05-07T05:52:42;11.00;99.90
57753;DHT22;43583;53.132;6.574;2023-05-07T05:55:08;11.00;99.90
57753;DHT22;43583;53.132;6.574;2023-05-07T05:57:34;11.00;99.90
57753;DHT22;43583;53.132;6.574;2023-05-07T06:00:00;11.00;99.90
57753;DHT22;43583;53.132;6.574;2023-05-07T06:02:26;11.00;99.90
57753;DHT22;43583;53.132;6.574;2023-05-07T06:04:52;11.00;99.90
57753;DHT22;43583;53.132;6.574;2023-05-07T06:07:18;11.00;99.90
57753;DHT22;43583;53.132;6.574;2023-05-07T06:09:44;11.00;99.90
57753;DHT22;43583;53.132;6.574;2023-05-07T06:12:09;11.00;99.90
57753;DHT22;43583;53.132;6.574;2023-05-07T06:14:35;11.00;99.90
57753;DHT22;43583;53.132;6.574;2023-05-07T06:17:00;11.00;99.90
57753;DHT22;43583;53.132;6.574;2023-05-07T06:19:26;11.00;99.90
57753;DHT22;43583;53.132;6.574;2023-05-07T06:21:53;11.10;99.90
57753;DHT22;43583;53.132;6.574;2023-05-07T06:24:19;11.00;99.90
57753;DHT22;43583;53.132;6.574;2023-05-07T06:26:45;11.00;99.90
57753;DHT22;43583;53.132;6.574;2023-05-07T06:29:10;11.10;99.90
57753;DHT22;43583;53.132;6.574;2023-05-07T06:31:36;11.20;99.90
57753;DHT22;43583;53.132;6.574;2023-05-07T06:34:01;11.20;99.90
57753;DHT22;43583;53.132;6.574;2023-05-07T06:36:28;11.20;99.90
57753;DHT22;43583;53.132;6.574;2023-05-07T06:38:53;11.20;99.90
57753;DHT22;43583;53.132;6.574;2023-05-07T06:41:19;11.20;99.90
57753;DHT22;43583;53.132;6.574;2023-05-07T06:43:45;11.30;99.90
57753;DHT22;43583;53.132;6.574;2023-05-07T06:46:11;11.30;99.90
57753;DHT22;43583;53.132;6.574;2023-05-07T06:48:37;11.40;99.90
57753;DHT22;43583;53.132;6.574;2023-05-07T06:51:02;11.40;99.90
57753;DHT22;43583;53.132;6.574;2023-05-07T06:53:28;11.40;99.90
57753;DHT22;43583;53.132;6.574;2023-05-07T06:55:56;11.50;99.90
57753;DHT22;43583;53.132;6.574;2023-05-07T06:58:21;11.50;99.90
57753;DHT22;43583;53.132;6.574;2023-05-07T07:00:47;11.50;99.90
57753;DHT22;43583;53.132;6.574;2023-05-07T07:03:13;11.50;99.90
57753;DHT22;43583;53.132;6.574;2023-05-07T07:05:40;11.50;99.90
57753;DHT22;43583;53.132;6.574;2023-05-07T07:08:06;11.50;99.90
57753;DHT22;43583;53.132;6.574;2023-05-07T07:10:31;11.50;99.90
57753;DHT22;43583;53.132;6.574;2023-05-07T07:12:57;11.50;99.90
57753;DHT22;43583;53.132;6.574;2023-05-07T07:15:23;11.50;99.90
57753;DHT22;43583;53.132;6.574;2023-05-07T07:17:50;11.60;99.90
57753;DHT22;43583;53.132;6.574;2023-05-07T07:20:16;11.50;99.90
57753;DHT22;43583;53.132;6.574;2023-05-07T07:22:42;11.60;99.90
57753;DHT22;43583;53.132;6.574;2023-05-07T07:25:08;11.70;99.90
57753;DHT22;43583;53.132;6.574;2023-05-07T07:27:34;11.70;99.90
57753;DHT22;43583;53.132;6.574;2023-05-07T07:29:59;11.80;99.90
57753;DHT22;43583;53.132;6.574;2023-05-07T07:32:25;11.80;99.90
57753;DHT22;43583;53.132;6.574;2023-05-07T07:34:51;11.80;99.90
57753;DHT22;43583;53.132;6.574;2023-05-07T07:37:17;11.90;99.90
57753;DHT22;43583;53.132;6.574;2023-05-07T07:39:42;11.90;99.90
57753;DHT22;43583;53.132;6.574;2023-05-07T07:42:08;12.00;99.90
57753;DHT22;43583;53.132;6.574;2023-05-07T07:44:33;12.10;99.90
57753;DHT22;43583;53.132;6.574;2023-05-07T07:46:59;12.10;99.90
57753;DHT22;43583;53.132;6.574;2023-05-07T07:49:25;12.30;99.90
57753;DHT22;43583;53.132;6.574;2023-05-07T07:51:50;12.30;99.90
57753;DHT22;43583;53.132;6.574;2023-05-07T07:54:16;12.40;99.90
57753;DHT22;43583;53.132;6.574;2023-05-07T07:56:42;12.50;99.90
57753;DHT22;43583;53.132;6.574;2023-05-07T07:59:07;12.60;99.90
57753;DHT22;43583;53.132;6.574;2023-05-07T08:01:33;12.50;99.90
57753;DHT22;43583;53.132;6.574;2023-05-07T08:03:59;12.70;99.90
57753;DHT22;43583;53.132;6.574;2023-05-07T08:06:25;12.80;99.90
57753;DHT22;43583;53.132;6.574;2023-05-07T08:08:53;12.90;99.90
57753;DHT22;43583;53.132;6.574;2023-05-07T08:11:19;13.00;99.90
57753;DHT22;43583;53.132;6.574;2023-05-07T08:13:45;13.00;99.90
57753;DHT22;43583;53.132;6.574;2023-05-07T08:16:11;13.10;99.90
57753;DHT22;43583;53.132;6.574;2023-05-07T08:18:37;13.10;99.90
57753;DHT22;43583;53.132;6.574;2023-05-07T08:21:03;13.20;99.90
57753;DHT22;43583;53.132;6.574;2023-05-07T08:23:28;13.20;99.90
57753;DHT22;43583;53.132;6.574;2023-05-07T08:25:54;13.30;99.90
57753;DHT22;43583;53.132;6.574;2023-05-07T08:28:20;13.20;99.90
57753;DHT22;43583;53.132;6.574;2023-05-07T08:30:46;13.20;99.90
57753;DHT22;43583;53.132;6.574;2023-05-07T08:33:12;13.20;99.90
57753;DHT22;43583;53.132;6.574;2023-05-07T08:35:38;13.20;99.90
57753;DHT22;43583;53.132;6.574;2023-05-07T08:38:04;13.40;99.90
57753;DHT22;43583;53.132;6.574;2023-05-07T08:40:35;13.40;99.90
57753;DHT22;43583;53.132;6.574;2023-05-07T08:43:02;13.60;99.90
57753;DHT22;43583;53.132;6.574;2023-05-07T08:45:30;13.70;99.90
57753;DHT22;43583;53.132;6.574;2023-05-07T08:47:59;13.90;99.90
57753;DHT22;43583;53.132;6.574;2023-05-07T08:50:25;13.90;99.90
57753;DHT22;43583;53.132;6.574;2023-05-07T08:52:51;13.90;99.90
57753;DHT22;43583;53.132;6.574;2023-05-07T08:55:17;13.90;99.90
57753;DHT22;43583;53.132;6.574;2023-05-07T08:57:42;14.10;99.90
57753;DHT22;43583;53.132;6.574;2023-05-07T09:00:09;14.20;99.90
57753;DHT22;43583;53.132;6.574;2023-05-07T09:02:35;14.20;99.90
57753;DHT22;43583;53.132;6.574;2023-05-07T09:05:02;14.10;99.90
57753;DHT22;43583;53.132;6.574;2023-05-07T09:07:28;14.10;99.90
57753;DHT22;43583;53.132;6.574;2023-05-07T09:09:54;14.10;99.90
57753;DHT22;43583;53.132;6.574;2023-05-07T09:12:23;14.10;99.90
57753;DHT22;43583;53.132;6.574;2023-05-07T09:14:49;14.30;99.90
57753;DHT22;43583;53.132;6.574;2023-05-07T09:17:18;14.40;99.90
57753;DHT22;43583;53.132;6.574;2023-05-07T09:19:47;14.40;99.90
57753;DHT22;43583;53.132;6.574;2023-05-07T09:22:13;14.50;99.90
57753;DHT22;43583;53.132;6.574;2023-05-07T09:24:38;14.60;99.90
57753;DHT22;43583;53.132;6.574;2023-05-07T09:27:05;14.70;99.90
57753;DHT22;43583;53.132;6.574;2023-05-07T09:29:31;14.60;99.90
57753;DHT22;43583;53.132;6.574;2023-05-07T09:32:08;14.70;99.90
57753;DHT22;43583;53.132;6.574;2023-05-07T09:34:34;14.70;99.90
57753;DHT22;43583;53.132;6.574;2023-05-07T09:37:04;14.70;99.90
57753;DHT22;43583;53.132;6.574;2023-05-07T09:39:47;14.80;99.90
57753;DHT22;43583;53.132;6.574;2023-05-07T09:42:13;15.00;99.90
57753;DHT22;43583;53.132;6.574;2023-05-07T09:44:43;14.90;99.90
57753;DHT22;43583;53.132;6.574;2023-05-07T09:47:11;14.90;99.90
57753;DHT22;43583;53.132;6.574;2023-05-07T09:49:40;14.90;99.90
57753;DHT22;43583;53.132;6.574;2023-05-07T09:52:07;15.00;99.90
57753;DHT22;43583;53.132;6.574;2023-05-07T09:54:36;15.50;99.90
57753;DHT22;43583;53.132;6.574;2023-05-07T09:57:04;15.70;99.90
57753;DHT22;43583;53.132;6.574;2023-05-07T09:59:32;15.90;99.90
57753;DHT22;43583;53.132;6.574;2023-05-07T10:01:58;15.90;99.90
57753;DHT22;43583;53.132;6.574;2023-05-07T10:04:46;15.80;99.90
57753;DHT22;43583;53.132;6.574;2023-05-07T10:07:29;15.60;99.90
57753;DHT22;43583;53.132;6.574;2023-05-07T10:09:55;15.40;99.90
57753;DHT22;43583;53.132;6.574;2023-05-07T10:15:49;15.60;99.90
57753;DHT22;43583;53.132;6.574;2023-05-07T10:18:40;15.80;99.90
57753;DHT22;43583;53.132;6.574;2023-05-07T10:21:22;15.60;99.90
57753;DHT22;43583;53.132;6.574;2023-05-07T10:27:42;15.50;99.90
57753;DHT22;43583;53.132;6.574;2023-05-07T10:33:32;15.60;99.90
57753;DHT22;43583;53.132;6.574;2023-05-07T10:39:34;15.90;99.90
57753;DHT22;43583;53.132;6.574;2023-05-07T10:42:33;16.10;99.90
57753;DHT22;43583;53.132;6.574;2023-05-07T10:48:34;16.30;99.90
57753;DHT22;43583;53.132;6.574;2023-05-07T10:51:21;16.60;99.90
57753;DHT22;43583;53.132;6.574;2023-05-07T10:56:41;16.90;99.90
57753;DHT22;43583;53.132;6.574;2023-05-07T11:01:55;16.80;99.90
57753;DHT22;43583;53.132;6.574;2023-05-07T11:04:21;16.80;99.90
57753;DHT22;43583;53.132;6.574;2023-05-07T11:15:02;16.80;99.90
57753;DHT22;43583;53.132;6.574;2023-05-07T11:17:28;17.00;99.90
57753;DHT22;43583;53.132;6.574;2023-05-07T11:19:57;17.20;99.90
57753;DHT22;43583;53.132;6.574;2023-05-07T11:22:39;17.20;99.90
57753;DHT22;43583;53.132;6.574;2023-05-07T11:25:06;17.10;99.90
57753;DHT22;43583;53.132;6.574;2023-05-07T11:27:35;16.90;99.90
57753;DHT22;43583;53.132;6.574;2023-05-07T11:30:01;17.00;99.90
57753;DHT22;43583;53.132;6.574;2023-05-07T11:32:28;17.20;99.90
57753;DHT22;43583;53.132;6.574;2023-05-07T11:34:55;17.40;99.90
57753;DHT22;43583;53.132;6.574;2023-05-07T11:37:22;17.40;99.90
57753;DHT22;43583;53.132;6.574;2023-05-07T11:39:48;17.30;99.90
57753;DHT22;43583;53.132;6.574;2023-05-07T11:42:31;17.60;99.90
57753;DHT22;43583;53.132;6.574;2023-05-07T11:44:57;18.00;99.90
57753;DHT22;43583;53.132;6.574;2023-05-07T11:47:23;18.10;99.90
57753;DHT22;43583;53.132;6.574;2023-05-07T11:49:51;18.20;99.90
57753;DHT22;43583;53.132;6.574;2023-05-07T11:52:18;18.20;99.90
57753;DHT22;43583;53.132;6.574;2023-05-07T11:54:55;18.10;99.90
57753;DHT22;43583;53.132;6.574;2023-05-07T11:57:22;18.30;99.90
57753;DHT22;43583;53.132;6.574;2023-05-07T11:59:48;18.30;99.90
57753;DHT22;43583;53.132;6.574;2023-05-07T12:02:18;18.20;99.90
57753;DHT22;43583;53.132;6.574;2023-05-07T12:04:46;18.10;99.90
57753;DHT22;43583;53.132;6.574;2023-05-07T12:07:23;18.30;99.90
57753;DHT22;43583;53.132;6.574;2023-05-07T12:10:03;18.40;99.90
57753;DHT22;43583;53.132;6.574;2023-05-07T12:12:29;18.40;99.90
57753;DHT22;43583;53.132;6.574;2023-05-07T12:14:55;18.50;99.90
57753;DHT22;43583;53.132;6.574;2023-05-07T12:17:20;18.80;99.90
57753;DHT22;43583;53.132;6.574;2023-05-07T12:19:47;19.00;99.90
57753;DHT22;43583;53.132;6.574;2023-05-07T12:22:13;19.30;99.90
57753;DHT22;43583;53.132;6.574;2023-05-07T12:24:49;19.30;99.90
57753;DHT22;43583;53.132;6.574;2023-05-07T12:27:16;19.20;99.90
57753;DHT22;43583;53.132;6.574;2023-05-07T12:29:48;19.10;99.90
57753;DHT22;43583;53.132;6.574;2023-05-07T12:32:16;19.00;99.90
57753;DHT22;43583;53.132;6.574;2023-05-07T12:34:42;18.90;99.90
57753;DHT22;43583;53.132;6.574;2023-05-07T12:37:08;19.00;99.90
57753;DHT22;43583;53.132;6.574;2023-05-07T12:39:33;18.90;99.90
57753;DHT22;43583;53.132;6.574;2023-05-07T12:41:59;18.90;99.90
57753;DHT22;43583;53.132;6.574;2023-05-07T12:44:29;18.80;99.90
57753;DHT22;43583;53.132;6.574;2023-05-07T12:46:55;18.70;99.90
57753;DHT22;43583;53.132;6.574;2023-05-07T12:49:21;18.50;99.90
57753;DHT22;43583;53.132;6.574;2023-05-07T12:51:47;18.70;99.90
57753;DHT22;43583;53.132;6.574;2023-05-07T12:54:27;18.70;99.90
57753;DHT22;43583;53.132;6.574;2023-05-07T12:57:04;18.90;99.90
57753;DHT22;43583;53.132;6.574;2023-05-07T12:59:34;19.00;99.90
57753;DHT22;43583;53.132;6.574;2023-05-07T13:05:37;19.00;99.90
57753;DHT22;43583;53.132;6.574;2023-05-07T13:08:03;18.70;99.90
57753;DHT22;43583;53.132;6.574;2023-05-07T13:10:28;18.80;99.90
57753;DHT22;43583;53.132;6.574;2023-05-07T13:12:54;18.80;99.90
57753;DHT22;43583;53.132;6.574;2023-05-07T13:15:20;18.80;99.90
57753;DHT22;43583;53.132;6.574;2023-05-07T13:17:47;18.60;99.90
57753;DHT22;43583;53.132;6.574;2023-05-07T13:20:12;18.80;99.90
57753;DHT22;43583;53.132;6.574;2023-05-07T13:22:39;18.90;99.90
57753;DHT22;43583;53.132;6.574;2023-05-07T13:25:05;18.70;99.90
57753;DHT22;43583;53.132;6.574;2023-05-07T13:27:31;18.70;99.90
57753;DHT22;43583;53.132;6.574;2023-05-07T13:29:57;18.80;99.90
57753;DHT22;43583;53.132;6.574;2023-05-07T13:32:22;18.70;99.90
57753;DHT22;43583;53.132;6.574;2023-05-07T13:34:48;18.60;99.90
57753;DHT22;43583;53.132;6.574;2023-05-07T13:37:14;18.60;99.90
57753;DHT22;43583;53.132;6.574;2023-05-07T13:39:39;18.60;99.90
57753;DHT22;43583;53.132;6.574;2023-05-07T13:42:06;18.70;99.90
57753;DHT22;43583;53.132;6.574;2023-05-07T13:44:32;18.90;99.90
57753;DHT22;43583;53.132;6.574;2023-05-07T13:47:00;18.90;99.90
57753;DHT22;43583;53.132;6.574;2023-05-07T13:49:48;19.00;99.90
57753;DHT22;43583;53.132;6.574;2023-05-07T13:57:00;18.70;99.90
57753;DHT22;43583;53.132;6.574;2023-05-07T13:59:25;18.60;99.90
57753;DHT22;43583;53.132;6.574;2023-05-07T14:01:51;18.60;99.90
57753;DHT22;43583;53.132;6.574;2023-05-07T14:04:17;18.70;99.90
57753;DHT22;43583;53.132;6.574;2023-05-07T14:06:42;18.90;99.90
57753;DHT22;43583;53.132;6.574;2023-05-07T14:09:08;19.00;99.90
57753;DHT22;43583;53.132;6.574;2023-05-07T14:11:33;18.90;99.90
57753;DHT22;43583;53.132;6.574;2023-05-07T14:13:59;18.90;99.90
57753;DHT22;43583;53.132;6.574;2023-05-07T14:16:25;18.70;99.90
57753;DHT22;43583;53.132;6.574;2023-05-07T14:18:51;18.60;99.90
57753;DHT22;43583;53.132;6.574;2023-05-07T14:21:17;18.50;99.90
57753;DHT22;43583;53.132;6.574;2023-05-07T14:23:53;18.50;99.90
57753;DHT22;43583;53.132;6.574;2023-05-07T14:26:22;18.60;99.90
57753;DHT22;43583;53.132;6.574;2023-05-07T14:28:48;18.60;99.90
57753;DHT22;43583;53.132;6.574;2023-05-07T14:31:14;18.70;99.90
57753;DHT22;43583;53.132;6.574;2023-05-07T14:33:40;18.90;99.90
57753;DHT22;43583;53.132;6.574;2023-05-07T14:36:06;19.00;99.90
57753;DHT22;43583;53.132;6.574;2023-05-07T14:38:32;19.00;99.90
57753;DHT22;43583;53.132;6.574;2023-05-07T14:41:28;19.00;99.90
57753;DHT22;43583;53.132;6.574;2023-05-07T14:44:24;19.30;99.90
57753;DHT22;43583;53.132;6.574;2023-05-07T14:46:52;19.40;99.90
57753;DHT22;43583;53.132;6.574;2023-05-07T14:49:18;19.30;99.90
57753;DHT22;43583;53.132;6.574;2023-05-07T14:51:45;19.40;99.90
57753;DHT22;43583;53.132;6.574;2023-05-07T14:54:14;19.30;99.90
57753;DHT22;43583;53.132;6.574;2023-05-07T14:56:41;19.20;99.90
57753;DHT22;43583;53.132;6.574;2023-05-07T14:59:07;19.10;99.90
57753;DHT22;43583;53.132;6.574;2023-05-07T15:01:34;19.00;99.90
57753;DHT22;43583;53.132;6.574;2023-05-07T15:04:00;19.00;99.90
57753;DHT22;43583;53.132;6.574;2023-05-07T15:06:26;19.00;99.90
57753;DHT22;43583;53.132;6.574;2023-05-07T15:08:52;19.20;99.90
57753;DHT22;43583;53.132;6.574;2023-05-07T15:11:18;19.20;99.90
57753;DHT22;43583;53.132;6.574;2023-05-07T15:13:43;19.20;99.90
57753;DHT22;43583;53.132;6.574;2023-05-07T15:16:09;19.30;99.90
57753;DHT22;43583;53.132;6.574;2023-05-07T15:18:35;19.30;99.90
57753;DHT22;43583;53.132;6.574;2023-05-07T15:21:00;19.20;99.90
57753;DHT22;43583;53.132;6.574;2023-05-07T15:23:26;19.10;99.90
57753;DHT22;43583;53.132;6.574;2023-05-07T15:25:52;19.10;99.90
57753;DHT22;43583;53.132;6.574;2023-05-07T15:28:18;19.00;99.90
57753;DHT22;43583;53.132;6.574;2023-05-07T15:30:44;18.90;99.90
57753;DHT22;43583;53.132;6.574;2023-05-07T15:33:10;18.80;99.90
57753;DHT22;43583;53.132;6.574;2023-05-07T15:35:50;18.80;99.90
57753;DHT22;43583;53.132;6.574;2023-05-07T15:38:32;18.80;99.90
57753;DHT22;43583;53.132;6.574;2023-05-07T15:41:13;18.80;99.90
57753;DHT22;43583;53.132;6.574;2023-05-07T15:43:48;18.70;99.90
57753;DHT22;43583;53.132;6.574;2023-05-07T15:46:22;18.60;99.90
57753;DHT22;43583;53.132;6.574;2023-05-07T15:48:50;18.70;99.90
57753;DHT22;43583;53.132;6.574;2023-05-07T15:51:16;18.90;99.90
57753;DHT22;43583;53.132;6.574;2023-05-07T15:53:45;18.80;99.90
57753;DHT22;43583;53.132;6.574;2023-05-07T15:56:12;18.70;99.90
57753;DHT22;43583;53.132;6.574;2023-05-07T15:58:37;18.70;99.90
57753;DHT22;43583;53.132;6.574;2023-05-07T16:01:03;18.70;99.90
57753;DHT22;43583;53.132;6.574;2023-05-07T16:03:29;18.70;99.90
57753;DHT22;43583;53.132;6.574;2023-05-07T16:05:55;18.70;99.90
57753;DHT22;43583;53.132;6.574;2023-05-07T16:08:25;18.80;99.90
57753;DHT22;43583;53.132;6.574;2023-05-07T16:10:54;18.80;99.90